MQT1BZ LSZH-GCFV
Flight info
| Callsign | MQT1BZ |
|---|---|
| Flight time | N/A |
| Altitude | 33000 |
| Route | VEBIT T50 ROTOS Z669 ULMES DCT VADAR DCT NINTU/N0489F410 DCT MEBAK DCT REPSI DCT LERGA DCT MINSO DCT NARAK DCT AGN DCT MAQAB DCT TIVLI DCT ELSAP DCT ZAR DCT EXEMU DCT PISUS DCT EDIMU DCT ADUXO DCT NUSGO DCT OBIBO DCT NASOS DCT ANZAN DCT BLN DCT MGA DCT PIMOS DCT GALTO UN869 RUSIK |
| Aircraft | A359/H-SDE2E3GHIJ3J4J5LM1ORWXY/LB1D1 |
Departure
| Time | N/A |
|---|---|
| Airport | Zürich Airport (LSZH) |
Arrival
| Time | 2026-05-07 11:37 |
|---|---|
| Airport | Fuerteventura Airport (GCFV) |
| Time | Latitude | Longitude | Altitude | Speed | Heading |
|---|---|---|---|---|---|
| 2026-05-07 08:00 | 46.11494 | 5.48245 | 39028 ft | 460 kts | 236° |
| 2026-05-07 08:01 | 46.07804 | 5.40707 | 39007 ft | 461 kts | 235° |
| 2026-05-07 08:01 | 46.04729 | 5.34435 | 39009 ft | 461 kts | 235° |
| 2026-05-07 08:02 | 46.01095 | 5.26948 | 39027 ft | 461 kts | 236° |
| 2026-05-07 08:02 | 45.97427 | 5.19365 | 39026 ft | 461 kts | 236° |
| 2026-05-07 08:03 | 45.93773 | 5.11819 | 39010 ft | 459 kts | 236° |
| 2026-05-07 08:03 | 45.90125 | 5.04309 | 39017 ft | 458 kts | 236° |
| 2026-05-07 08:04 | 45.86473 | 4.96812 | 39011 ft | 458 kts | 236° |
| 2026-05-07 08:04 | 45.82812 | 4.89322 | 39013 ft | 459 kts | 236° |
| 2026-05-07 08:05 | 45.79114 | 4.81781 | 39025 ft | 459 kts | 235° |
| 2026-05-07 08:05 | 45.75440 | 4.74305 | 39027 ft | 459 kts | 235° |
| 2026-05-07 08:06 | 45.71757 | 4.66827 | 39026 ft | 459 kts | 235° |
| 2026-05-07 08:06 | 45.68074 | 4.59353 | 39027 ft | 460 kts | 235° |
| 2026-05-07 08:07 | 45.64376 | 4.51886 | 39035 ft | 461 kts | 235° |
| 2026-05-07 08:07 | 45.60664 | 4.44414 | 39037 ft | 461 kts | 235° |
| 2026-05-07 08:08 | 45.56950 | 4.36951 | 39046 ft | 461 kts | 235° |
| 2026-05-07 08:08 | 45.53235 | 4.29504 | 39045 ft | 461 kts | 235° |
| 2026-05-07 08:09 | 45.49510 | 4.22066 | 39045 ft | 461 kts | 235° |
| 2026-05-07 08:09 | 45.45781 | 4.14636 | 39046 ft | 461 kts | 235° |
| 2026-05-07 08:10 | 45.42047 | 4.07218 | 39045 ft | 461 kts | 235° |
| 2026-05-07 08:10 | 45.38286 | 3.99757 | 39041 ft | 461 kts | 235° |
| 2026-05-07 08:11 | 45.34544 | 3.92364 | 39037 ft | 461 kts | 235° |
| 2026-05-07 08:11 | 45.30793 | 3.84977 | 39034 ft | 461 kts | 235° |
| 2026-05-07 08:12 | 45.27041 | 3.77604 | 39026 ft | 461 kts | 235° |
| 2026-05-07 08:12 | 45.23311 | 3.70210 | 39029 ft | 460 kts | 236° |
| 2026-05-07 08:13 | 45.19662 | 3.62763 | 39028 ft | 459 kts | 236° |
| 2026-05-07 08:13 | 45.15992 | 3.55274 | 39027 ft | 459 kts | 236° |
| 2026-05-07 08:14 | 45.12330 | 3.47857 | 39027 ft | 459 kts | 236° |
| 2026-05-07 08:14 | 45.08690 | 3.40526 | 39008 ft | 458 kts | 236° |
| 2026-05-07 08:15 | 45.04998 | 3.33112 | 39027 ft | 458 kts | 236° |
| 2026-05-07 08:15 | 45.01333 | 3.25763 | 39029 ft | 458 kts | 236° |
| 2026-05-07 08:16 | 44.97660 | 3.18418 | 39028 ft | 457 kts | 236° |
| 2026-05-07 08:16 | 44.93987 | 3.11090 | 39008 ft | 457 kts | 236° |
| 2026-05-07 08:17 | 44.90309 | 3.03773 | 39027 ft | 457 kts | 236° |
| 2026-05-07 08:17 | 44.86621 | 2.96457 | 39013 ft | 456 kts | 236° |
| 2026-05-07 08:18 | 44.82974 | 2.89150 | 39010 ft | 456 kts | 237° |
| 2026-05-07 08:18 | 44.79514 | 2.81589 | 39025 ft | 456 kts | 239° |
| 2026-05-07 08:19 | 44.76119 | 2.74063 | 39008 ft | 456 kts | 238° |
| 2026-05-07 08:19 | 44.72685 | 2.66571 | 39021 ft | 455 kts | 238° |
| 2026-05-07 08:20 | 44.69230 | 2.59116 | 39010 ft | 455 kts | 238° |
| 2026-05-07 08:20 | 44.65769 | 2.51678 | 39022 ft | 455 kts | 238° |
| 2026-05-07 08:21 | 44.62285 | 2.44211 | 39012 ft | 454 kts | 238° |
| 2026-05-07 08:21 | 44.58820 | 2.36799 | 39025 ft | 453 kts | 238° |
| 2026-05-07 08:22 | 44.55361 | 2.29415 | 39017 ft | 453 kts | 238° |
| 2026-05-07 08:22 | 44.51895 | 2.22041 | 39017 ft | 452 kts | 238° |
| 2026-05-07 08:23 | 44.48428 | 2.14683 | 39026 ft | 452 kts | 238° |
| 2026-05-07 08:23 | 44.44936 | 2.07294 | 39025 ft | 451 kts | 238° |
| 2026-05-07 08:24 | 44.41473 | 1.99987 | 39027 ft | 451 kts | 238° |
| 2026-05-07 08:24 | 44.38000 | 1.92664 | 39026 ft | 451 kts | 238° |
| 2026-05-07 08:25 | 44.34508 | 1.85326 | 39026 ft | 451 kts | 238° |
| 2026-05-07 08:25 | 44.31027 | 1.78032 | 39029 ft | 451 kts | 238° |
| 2026-05-07 08:26 | 44.25853 | 1.67006 | 39036 ft | 451 kts | 239° |
| 2026-05-07 08:26 | 44.22493 | 1.59620 | 39035 ft | 451 kts | 239° |
| 2026-05-07 08:27 | 44.19690 | 1.53496 | 39035 ft | 451 kts | 239° |
| 2026-05-07 08:27 | 44.16302 | 1.46147 | 39035 ft | 451 kts | 238° |
| 2026-05-07 08:28 | 44.12874 | 1.38748 | 39035 ft | 451 kts | 238° |
| 2026-05-07 08:28 | 44.09487 | 1.31454 | 39036 ft | 451 kts | 238° |
| 2026-05-07 08:29 | 44.06053 | 1.24074 | 39036 ft | 452 kts | 238° |
| 2026-05-07 08:29 | 44.02655 | 1.16791 | 39037 ft | 452 kts | 238° |
| 2026-05-07 08:30 | 43.99229 | 1.09466 | 39035 ft | 452 kts | 238° |
| 2026-05-07 08:30 | 43.95782 | 1.02110 | 39033 ft | 450 kts | 238° |
| 2026-05-07 08:31 | 43.92365 | 0.94844 | 39028 ft | 449 kts | 238° |
| 2026-05-07 08:31 | 43.88785 | 0.87765 | 39028 ft | 450 kts | 231° |
| 2026-05-07 08:32 | 43.84319 | 0.81658 | 39028 ft | 451 kts | 224° |
| 2026-05-07 08:32 | 43.79631 | 0.75853 | 39027 ft | 453 kts | 223° |
| 2026-05-07 08:33 | 43.74906 | 0.70088 | 39026 ft | 453 kts | 223° |
| 2026-05-07 08:33 | 43.70187 | 0.64308 | 39026 ft | 453 kts | 224° |
| 2026-05-07 08:34 | 43.65478 | 0.58529 | 39027 ft | 453 kts | 224° |
| 2026-05-07 08:34 | 43.60769 | 0.52755 | 39027 ft | 453 kts | 224° |
| 2026-05-07 08:35 | 43.56022 | 0.46954 | 39028 ft | 453 kts | 223° |
| 2026-05-07 08:35 | 43.51308 | 0.41206 | 39028 ft | 453 kts | 223° |
| 2026-05-07 08:36 | 43.46588 | 0.35461 | 39012 ft | 453 kts | 223° |
| 2026-05-07 08:36 | 43.41870 | 0.29730 | 39026 ft | 452 kts | 223° |
| 2026-05-07 08:37 | 43.37146 | 0.24007 | 39027 ft | 453 kts | 223° |
| 2026-05-07 08:37 | 43.32420 | 0.18298 | 39012 ft | 452 kts | 223° |
| 2026-05-07 08:38 | 43.27693 | 0.12597 | 39027 ft | 452 kts | 223° |
| 2026-05-07 08:38 | 43.22967 | 0.06909 | 39019 ft | 452 kts | 223° |
| 2026-05-07 08:39 | 43.18215 | 0.01200 | 39026 ft | 451 kts | 223° |
| 2026-05-07 08:39 | 43.13492 | -0.04462 | 39009 ft | 451 kts | 223° |
| 2026-05-07 08:40 | 43.08764 | -0.10116 | 39006 ft | 451 kts | 223° |
| 2026-05-07 08:40 | 43.04034 | -0.15757 | 39022 ft | 451 kts | 223° |
| 2026-05-07 08:41 | 42.99306 | -0.21390 | 39021 ft | 451 kts | 223° |
| 2026-05-07 08:41 | 42.94574 | -0.27006 | 39006 ft | 450 kts | 223° |
| 2026-05-07 08:42 | 42.89851 | -0.32605 | 39006 ft | 450 kts | 223° |
| 2026-05-07 08:42 | 42.85119 | -0.38206 | 39026 ft | 450 kts | 223° |
| 2026-05-07 08:43 | 42.80138 | -0.43389 | 39027 ft | 453 kts | 212° |
| 2026-05-07 08:43 | 42.74394 | -0.46973 | 39010 ft | 456 kts | 205° |
| 2026-05-07 08:44 | 42.68474 | -0.50088 | 39010 ft | 456 kts | 204° |
| 2026-05-07 08:44 | 42.62542 | -0.53145 | 39008 ft | 456 kts | 204° |
| 2026-05-07 08:45 | 42.56625 | -0.56222 | 39014 ft | 456 kts | 204° |
| 2026-05-07 08:45 | 42.50716 | -0.59313 | 39023 ft | 455 kts | 204° |
| 2026-05-07 08:46 | 42.44808 | -0.62399 | 39012 ft | 455 kts | 204° |
| 2026-05-07 08:46 | 42.38905 | -0.65478 | 39025 ft | 454 kts | 204° |
| 2026-05-07 08:47 | 42.33005 | -0.68547 | 39014 ft | 455 kts | 204° |
| 2026-05-07 08:47 | 42.27101 | -0.71612 | 39011 ft | 455 kts | 204° |
| 2026-05-07 08:48 | 42.21197 | -0.74668 | 39023 ft | 454 kts | 204° |
| 2026-05-07 08:48 | 42.15307 | -0.77715 | 39024 ft | 454 kts | 204° |
| 2026-05-07 08:49 | 42.09410 | -0.80756 | 39018 ft | 453 kts | 204° |
| 2026-05-07 08:49 | 42.03515 | -0.83794 | 39012 ft | 454 kts | 204° |
| 2026-05-07 08:50 | 41.97620 | -0.86821 | 39011 ft | 453 kts | 204° |
| 2026-05-07 08:50 | 41.91753 | -0.89830 | 39015 ft | 449 kts | 204° |
| 2026-05-07 08:51 | 41.85922 | -0.92819 | 39016 ft | 448 kts | 204° |
| 2026-05-07 08:51 | 41.80094 | -0.95798 | 39027 ft | 448 kts | 204° |
| 2026-05-07 08:52 | 41.74263 | -0.98771 | 39016 ft | 448 kts | 204° |
| 2026-05-07 08:52 | 41.68438 | -1.01745 | 39011 ft | 448 kts | 205° |
| 2026-05-07 08:53 | 41.63003 | -1.05654 | 39009 ft | 442 kts | 216° |
| 2026-05-07 08:53 | 41.57900 | -1.10245 | 39008 ft | 442 kts | 217° |
| 2026-05-07 08:54 | 41.52844 | -1.14934 | 39022 ft | 442 kts | 217° |
| 2026-05-07 08:54 | 41.47779 | -1.19609 | 39026 ft | 442 kts | 217° |
| 2026-05-07 08:55 | 41.42712 | -1.24251 | 39014 ft | 442 kts | 217° |
| 2026-05-07 08:55 | 41.37599 | -1.28916 | 39027 ft | 442 kts | 217° |
| 2026-05-07 08:56 | 41.32527 | -1.33533 | 39027 ft | 441 kts | 217° |
| 2026-05-07 08:56 | 41.27459 | -1.38139 | 39024 ft | 441 kts | 217° |
| 2026-05-07 08:57 | 41.22395 | -1.42746 | 39015 ft | 441 kts | 217° |
| 2026-05-07 08:57 | 41.17331 | -1.47341 | 39026 ft | 441 kts | 217° |
| 2026-05-07 08:58 | 41.12270 | -1.51930 | 39011 ft | 441 kts | 217° |
| 2026-05-07 08:58 | 41.07170 | -1.56526 | 39009 ft | 440 kts | 217° |
| 2026-05-07 08:59 | 41.02966 | -1.60306 | 39013 ft | 439 kts | 217° |
| 2026-05-07 08:59 | 40.97879 | -1.64878 | 39012 ft | 439 kts | 216° |
| 2026-05-07 09:00 | 40.92837 | -1.69405 | 39026 ft | 438 kts | 216° |
| 2026-05-07 09:00 | 40.87792 | -1.73922 | 39011 ft | 437 kts | 217° |
| 2026-05-07 09:01 | 40.82755 | -1.78431 | 39017 ft | 437 kts | 216° |
| 2026-05-07 09:01 | 40.77728 | -1.82922 | 39006 ft | 436 kts | 216° |
| 2026-05-07 09:02 | 40.72698 | -1.87413 | 39016 ft | 436 kts | 216° |
| 2026-05-07 09:02 | 40.67677 | -1.91873 | 39005 ft | 435 kts | 216° |
| 2026-05-07 09:03 | 40.62631 | -1.96345 | 39015 ft | 434 kts | 216° |
| 2026-05-07 09:03 | 40.57618 | -2.00783 | 38997 ft | 434 kts | 216° |
| 2026-05-07 09:04 | 40.52605 | -2.05212 | 38993 ft | 434 kts | 216° |
| 2026-05-07 09:04 | 40.47598 | -2.09636 | 39003 ft | 434 kts | 216° |
| 2026-05-07 09:05 | 40.42587 | -2.14045 | 38994 ft | 433 kts | 216° |
| 2026-05-07 09:05 | 40.37580 | -2.18449 | 38987 ft | 433 kts | 216° |
| 2026-05-07 09:06 | 40.32582 | -2.22833 | 38980 ft | 432 kts | 216° |
| 2026-05-07 09:06 | 40.27578 | -2.27215 | 38983 ft | 432 kts | 216° |
| 2026-05-07 09:07 | 40.22578 | -2.31587 | 38981 ft | 432 kts | 216° |
| 2026-05-07 09:07 | 40.17545 | -2.35981 | 38980 ft | 432 kts | 216° |
| 2026-05-07 09:08 | 40.12539 | -2.40342 | 38979 ft | 432 kts | 216° |
| 2026-05-07 09:08 | 40.07526 | -2.44698 | 38981 ft | 432 kts | 216° |
| 2026-05-07 09:09 | 40.02516 | -2.49051 | 38977 ft | 433 kts | 216° |
| 2026-05-07 09:09 | 39.97501 | -2.53401 | 38983 ft | 433 kts | 216° |
| 2026-05-07 09:10 | 39.92495 | -2.57731 | 38978 ft | 431 kts | 216° |
| 2026-05-07 09:10 | 39.87468 | -2.62072 | 38979 ft | 430 kts | 216° |
| 2026-05-07 09:11 | 39.82478 | -2.66374 | 38976 ft | 430 kts | 216° |
| 2026-05-07 09:11 | 39.77485 | -2.70670 | 38982 ft | 431 kts | 216° |
| 2026-05-07 09:12 | 39.72480 | -2.74971 | 38981 ft | 431 kts | 215° |
| 2026-05-07 09:12 | 39.67476 | -2.79262 | 38981 ft | 431 kts | 215° |
| 2026-05-07 09:13 | 39.62479 | -2.83538 | 38981 ft | 431 kts | 215° |
| 2026-05-07 09:13 | 39.57443 | -2.87845 | 38981 ft | 430 kts | 215° |
| 2026-05-07 09:14 | 39.52443 | -2.92113 | 38982 ft | 430 kts | 215° |
| 2026-05-07 09:14 | 39.47442 | -2.96373 | 38981 ft | 430 kts | 215° |
| 2026-05-07 09:15 | 39.42408 | -3.00654 | 38978 ft | 430 kts | 215° |
| 2026-05-07 09:15 | 39.37057 | -3.04155 | 38982 ft | 433 kts | 205° |
| 2026-05-07 09:16 | 39.31435 | -3.06975 | 38981 ft | 434 kts | 203° |
| 2026-05-07 09:16 | 39.25775 | -3.09691 | 38974 ft | 435 kts | 203° |
| 2026-05-07 09:17 | 39.20037 | -3.12455 | 38984 ft | 446 kts | 202° |
| 2026-05-07 09:17 | 39.14160 | -3.15299 | 38982 ft | 455 kts | 202° |
| 2026-05-07 09:18 | 39.08233 | -3.18162 | 38982 ft | 454 kts | 202° |
| 2026-05-07 09:18 | 39.02326 | -3.21012 | 38982 ft | 453 kts | 202° |
| 2026-05-07 09:19 | 38.96391 | -3.23874 | 38981 ft | 452 kts | 202° |
| 2026-05-07 09:19 | 38.90491 | -3.26716 | 38978 ft | 453 kts | 202° |
| 2026-05-07 09:20 | 38.84592 | -3.29546 | 38971 ft | 452 kts | 202° |
| 2026-05-07 09:20 | 38.78701 | -3.32366 | 38971 ft | 452 kts | 202° |
| 2026-05-07 09:21 | 38.72802 | -3.35190 | 38971 ft | 452 kts | 202° |
| 2026-05-07 09:21 | 38.66909 | -3.38006 | 38971 ft | 452 kts | 203° |
| 2026-05-07 09:22 | 38.61015 | -3.40820 | 38971 ft | 452 kts | 203° |
| 2026-05-07 09:22 | 38.55127 | -3.43617 | 38972 ft | 452 kts | 203° |
| 2026-05-07 09:23 | 38.49232 | -3.46418 | 38971 ft | 452 kts | 203° |
| 2026-05-07 09:23 | 38.43305 | -3.49230 | 38971 ft | 451 kts | 203° |
| 2026-05-07 09:24 | 38.37418 | -3.52018 | 38973 ft | 451 kts | 203° |
| 2026-05-07 09:24 | 38.31534 | -3.54799 | 38970 ft | 451 kts | 203° |
| 2026-05-07 09:25 | 38.25641 | -3.57580 | 38971 ft | 452 kts | 203° |
| 2026-05-07 09:25 | 38.19749 | -3.60359 | 38971 ft | 452 kts | 203° |
| 2026-05-07 09:26 | 38.14851 | -3.62660 | 38964 ft | 451 kts | 203° |
| 2026-05-07 09:26 | 38.09075 | -3.65735 | 38970 ft | 449 kts | 207° |
| 2026-05-07 09:27 | 38.03407 | -3.69077 | 38972 ft | 450 kts | 207° |
| 2026-05-07 09:28 | 37.94833 | -3.74034 | 38972 ft | 449 kts | 207° |
| 2026-05-07 09:28 | 37.89122 | -3.77256 | 38971 ft | 449 kts | 207° |
| 2026-05-07 09:29 | 37.83402 | -3.80466 | 38953 ft | 449 kts | 206° |
| 2026-05-07 09:29 | 37.77687 | -3.83673 | 38951 ft | 449 kts | 207° |
| 2026-05-07 09:30 | 37.71975 | -3.86877 | 38954 ft | 449 kts | 207° |
| 2026-05-07 09:30 | 37.66256 | -3.90079 | 38953 ft | 450 kts | 207° |
| 2026-05-07 09:31 | 37.60542 | -3.93272 | 38954 ft | 449 kts | 207° |
| 2026-05-07 09:31 | 37.54831 | -3.96461 | 38959 ft | 449 kts | 207° |
| 2026-05-07 09:32 | 37.49115 | -3.99646 | 38963 ft | 449 kts | 207° |
| 2026-05-07 09:32 | 37.43405 | -4.02820 | 38961 ft | 449 kts | 207° |
| 2026-05-07 09:33 | 37.37641 | -4.06021 | 38962 ft | 450 kts | 207° |
| 2026-05-07 09:33 | 37.31911 | -4.09197 | 38962 ft | 450 kts | 207° |
| 2026-05-07 09:34 | 37.26183 | -4.12368 | 38962 ft | 450 kts | 207° |
| 2026-05-07 09:34 | 37.20453 | -4.15534 | 38963 ft | 450 kts | 208° |
| 2026-05-07 09:35 | 37.14718 | -4.18698 | 38962 ft | 450 kts | 208° |
| 2026-05-07 09:35 | 37.08994 | -4.21849 | 38957 ft | 449 kts | 208° |
| 2026-05-07 09:36 | 37.03229 | -4.25017 | 38950 ft | 449 kts | 208° |
| 2026-05-07 09:36 | 36.97500 | -4.28162 | 38952 ft | 449 kts | 208° |
| 2026-05-07 09:37 | 36.91743 | -4.31317 | 38942 ft | 449 kts | 208° |
| 2026-05-07 09:37 | 36.86021 | -4.34448 | 38939 ft | 449 kts | 208° |
| 2026-05-07 09:38 | 36.80428 | -4.37831 | 38945 ft | 444 kts | 216° |
| 2026-05-07 09:38 | 36.75194 | -4.41870 | 38948 ft | 442 kts | 217° |
| 2026-05-07 09:39 | 36.69986 | -4.46026 | 38942 ft | 441 kts | 217° |
| 2026-05-07 09:39 | 36.64815 | -4.50157 | 38931 ft | 441 kts | 217° |
| 2026-05-07 09:40 | 36.59641 | -4.54266 | 38937 ft | 440 kts | 217° |
| 2026-05-07 09:40 | 36.54469 | -4.58358 | 38942 ft | 441 kts | 217° |
| 2026-05-07 09:41 | 36.49259 | -4.62470 | 38945 ft | 441 kts | 217° |
| 2026-05-07 09:41 | 36.44084 | -4.66552 | 38942 ft | 440 kts | 217° |
| 2026-05-07 09:42 | 36.38912 | -4.70626 | 38942 ft | 440 kts | 217° |
| 2026-05-07 09:42 | 36.33740 | -4.74691 | 38942 ft | 440 kts | 217° |
| 2026-05-07 09:43 | 36.28571 | -4.78748 | 38956 ft | 440 kts | 217° |
| 2026-05-07 09:43 | 36.23405 | -4.82794 | 38954 ft | 439 kts | 217° |
| 2026-05-07 09:44 | 36.18235 | -4.86840 | 38952 ft | 439 kts | 217° |
| 2026-05-07 09:44 | 36.13073 | -4.90884 | 38960 ft | 439 kts | 218° |
| 2026-05-07 09:45 | 36.07936 | -4.94953 | 38954 ft | 439 kts | 218° |
| 2026-05-07 09:45 | 36.02768 | -4.99047 | 38952 ft | 438 kts | 218° |
| 2026-05-07 09:46 | 35.97630 | -5.03106 | 38953 ft | 438 kts | 218° |
| 2026-05-07 09:46 | 35.92518 | -5.07128 | 38951 ft | 434 kts | 218° |
| 2026-05-07 09:47 | 35.87439 | -5.11123 | 38943 ft | 433 kts | 218° |
| 2026-05-07 09:47 | 35.82332 | -5.15140 | 38946 ft | 432 kts | 218° |
| 2026-05-07 09:48 | 35.77492 | -5.19466 | 38948 ft | 428 kts | 223° |
| 2026-05-07 09:48 | 35.72786 | -5.23969 | 38941 ft | 428 kts | 223° |
| 2026-05-07 09:49 | 35.68026 | -5.28454 | 38941 ft | 428 kts | 222° |
| 2026-05-07 09:49 | 35.63270 | -5.32845 | 38938 ft | 427 kts | 222° |
| 2026-05-07 09:50 | 35.59275 | -5.36510 | 38942 ft | 427 kts | 222° |
| 2026-05-07 09:50 | 35.54504 | -5.40884 | 38943 ft | 429 kts | 222° |
| 2026-05-07 09:51 | 35.49721 | -5.45263 | 38942 ft | 430 kts | 221° |
| 2026-05-07 09:51 | 35.44886 | -5.49643 | 38942 ft | 429 kts | 221° |
| 2026-05-07 09:52 | 35.40103 | -5.53999 | 38944 ft | 428 kts | 222° |
| 2026-05-07 09:52 | 35.35327 | -5.58351 | 38947 ft | 427 kts | 221° |
| 2026-05-07 09:53 | 35.30521 | -5.62734 | 38954 ft | 427 kts | 221° |
| 2026-05-07 09:53 | 35.25724 | -5.67097 | 38952 ft | 427 kts | 221° |
| 2026-05-07 09:54 | 35.20954 | -5.71412 | 38954 ft | 425 kts | 222° |
| 2026-05-07 09:54 | 35.16193 | -5.75766 | 38950 ft | 429 kts | 222° |
| 2026-05-07 09:55 | 35.11395 | -5.80109 | 38950 ft | 429 kts | 221° |
| 2026-05-07 09:55 | 35.06563 | -5.84438 | 38962 ft | 428 kts | 222° |
| 2026-05-07 09:56 | 35.01779 | -5.88754 | 38963 ft | 427 kts | 221° |
| 2026-05-07 09:56 | 34.97000 | -5.93069 | 38966 ft | 428 kts | 222° |
| 2026-05-07 09:57 | 34.92209 | -5.97367 | 38973 ft | 428 kts | 221° |
| 2026-05-07 09:57 | 34.87380 | -6.01698 | 38969 ft | 427 kts | 221° |
| 2026-05-07 09:58 | 34.82581 | -6.05990 | 38971 ft | 429 kts | 221° |
| 2026-05-07 09:58 | 34.77765 | -6.10300 | 38970 ft | 430 kts | 221° |
| 2026-05-07 09:59 | 34.72947 | -6.14596 | 38970 ft | 429 kts | 221° |
| 2026-05-07 09:59 | 34.68125 | -6.18894 | 38971 ft | 429 kts | 221° |
| 2026-05-07 10:00 | 34.63316 | -6.23177 | 38971 ft | 429 kts | 221° |
| 2026-05-07 10:00 | 34.58445 | -6.27475 | 38972 ft | 429 kts | 221° |
| 2026-05-07 10:01 | 34.53646 | -6.31755 | 38972 ft | 428 kts | 221° |
| 2026-05-07 10:01 | 34.48869 | -6.36021 | 38973 ft | 427 kts | 221° |
| 2026-05-07 10:02 | 34.44031 | -6.40298 | 38970 ft | 428 kts | 221° |
| 2026-05-07 10:02 | 34.39202 | -6.44553 | 38970 ft | 428 kts | 221° |
| 2026-05-07 10:03 | 34.34396 | -6.48798 | 38974 ft | 429 kts | 221° |
| 2026-05-07 10:03 | 34.29578 | -6.53058 | 38972 ft | 428 kts | 221° |
| 2026-05-07 10:04 | 34.24766 | -6.57303 | 38969 ft | 428 kts | 221° |
| 2026-05-07 10:04 | 34.19909 | -6.61559 | 38971 ft | 429 kts | 221° |
| 2026-05-07 10:05 | 34.15078 | -6.65795 | 38972 ft | 430 kts | 221° |
| 2026-05-07 10:05 | 34.10241 | -6.70052 | 38960 ft | 431 kts | 221° |
| 2026-05-07 10:06 | 34.05358 | -6.74323 | 38962 ft | 432 kts | 221° |
| 2026-05-07 10:06 | 34.00432 | -6.78507 | 38961 ft | 433 kts | 219° |
| 2026-05-07 10:07 | 33.95431 | -6.82557 | 38964 ft | 433 kts | 219° |
| 2026-05-07 10:07 | 33.90431 | -6.86617 | 38970 ft | 433 kts | 219° |
| 2026-05-07 10:08 | 33.85441 | -6.90701 | 38971 ft | 434 kts | 219° |
| 2026-05-07 10:08 | 33.80447 | -6.94789 | 38974 ft | 435 kts | 219° |
| 2026-05-07 10:09 | 33.75437 | -6.98877 | 38980 ft | 436 kts | 219° |
| 2026-05-07 10:09 | 33.70388 | -7.03010 | 38990 ft | 437 kts | 219° |
| 2026-05-07 10:10 | 33.65356 | -7.07116 | 38988 ft | 437 kts | 219° |
| 2026-05-07 10:10 | 33.60321 | -7.11214 | 38991 ft | 438 kts | 219° |
| 2026-05-07 10:11 | 33.55275 | -7.15315 | 38993 ft | 439 kts | 219° |
| 2026-05-07 10:11 | 33.50186 | -7.19445 | 38984 ft | 439 kts | 219° |
| 2026-05-07 10:12 | 33.45972 | -7.22860 | 38987 ft | 439 kts | 219° |
| 2026-05-07 10:12 | 33.40912 | -7.26961 | 38993 ft | 439 kts | 219° |
| 2026-05-07 10:13 | 33.35841 | -7.31062 | 38991 ft | 440 kts | 219° |
| 2026-05-07 10:13 | 33.30758 | -7.35165 | 38993 ft | 441 kts | 219° |
| 2026-05-07 10:14 | 33.25671 | -7.39259 | 38988 ft | 441 kts | 219° |
| 2026-05-07 10:14 | 33.20559 | -7.43376 | 38994 ft | 441 kts | 219° |
| 2026-05-07 10:15 | 33.15471 | -7.47470 | 38988 ft | 441 kts | 219° |
| 2026-05-07 10:15 | 33.10369 | -7.51558 | 38989 ft | 442 kts | 218° |
| 2026-05-07 10:16 | 33.05056 | -7.55395 | 38990 ft | 444 kts | 215° |
| 2026-05-07 10:16 | 32.99687 | -7.59058 | 38992 ft | 445 kts | 215° |
| 2026-05-07 10:17 | 32.94335 | -7.62754 | 38993 ft | 445 kts | 216° |
| 2026-05-07 10:17 | 32.89007 | -7.66479 | 38988 ft | 444 kts | 216° |
| 2026-05-07 10:18 | 32.83642 | -7.70247 | 38991 ft | 445 kts | 216° |
| 2026-05-07 10:18 | 32.78314 | -7.73986 | 38987 ft | 445 kts | 216° |
| 2026-05-07 10:19 | 32.72980 | -7.77717 | 38988 ft | 445 kts | 216° |
| 2026-05-07 10:19 | 32.67634 | -7.81451 | 38990 ft | 446 kts | 215° |
| 2026-05-07 10:20 | 32.62282 | -7.85182 | 38986 ft | 446 kts | 215° |
| 2026-05-07 10:20 | 32.56896 | -7.88934 | 38982 ft | 446 kts | 215° |
| 2026-05-07 10:21 | 32.51495 | -7.92693 | 38979 ft | 447 kts | 215° |
| 2026-05-07 10:21 | 32.46130 | -7.96419 | 38979 ft | 447 kts | 215° |
| 2026-05-07 10:22 | 32.40755 | -8.00146 | 38979 ft | 448 kts | 215° |
| 2026-05-07 10:22 | 32.35369 | -8.03874 | 38972 ft | 449 kts | 215° |
| 2026-05-07 10:23 | 32.29963 | -8.07613 | 38971 ft | 450 kts | 215° |
| 2026-05-07 10:23 | 32.24563 | -8.11343 | 38971 ft | 450 kts | 215° |
| 2026-05-07 10:24 | 32.19152 | -8.15073 | 38971 ft | 450 kts | 215° |
| 2026-05-07 10:24 | 32.13713 | -8.18821 | 38970 ft | 450 kts | 215° |
| 2026-05-07 10:25 | 32.08304 | -8.22517 | 38971 ft | 450 kts | 214° |
| 2026-05-07 10:25 | 32.02859 | -8.26161 | 38970 ft | 450 kts | 214° |
| 2026-05-07 10:26 | 31.97416 | -8.29794 | 38972 ft | 450 kts | 214° |
| 2026-05-07 10:26 | 31.91971 | -8.33438 | 38972 ft | 450 kts | 214° |
| 2026-05-07 10:27 | 31.86528 | -8.37078 | 38971 ft | 450 kts | 214° |
| 2026-05-07 10:27 | 31.81091 | -8.40711 | 38972 ft | 450 kts | 214° |
| 2026-05-07 10:28 | 31.75652 | -8.44341 | 38970 ft | 449 kts | 214° |
| 2026-05-07 10:28 | 31.70221 | -8.47960 | 38971 ft | 449 kts | 214° |
| 2026-05-07 10:29 | 31.64777 | -8.51584 | 38972 ft | 449 kts | 214° |
| 2026-05-07 10:29 | 31.59294 | -8.55228 | 38970 ft | 450 kts | 214° |
| 2026-05-07 10:30 | 31.51137 | -8.60638 | 38962 ft | 449 kts | 214° |
| 2026-05-07 10:30 | 31.45700 | -8.64240 | 38963 ft | 449 kts | 214° |
| 2026-05-07 10:31 | 31.40260 | -8.67838 | 38962 ft | 449 kts | 214° |
| 2026-05-07 10:31 | 31.34792 | -8.71451 | 38962 ft | 448 kts | 214° |
| 2026-05-07 10:32 | 31.29359 | -8.75035 | 38962 ft | 448 kts | 214° |
| 2026-05-07 10:32 | 31.23928 | -8.78615 | 38962 ft | 448 kts | 214° |
| 2026-05-07 10:33 | 31.18497 | -8.82190 | 38962 ft | 448 kts | 214° |
| 2026-05-07 10:33 | 31.13065 | -8.85758 | 38955 ft | 448 kts | 214° |
| 2026-05-07 10:34 | 31.07671 | -8.89296 | 38950 ft | 448 kts | 214° |
| 2026-05-07 10:34 | 31.02238 | -8.92854 | 38955 ft | 448 kts | 214° |
| 2026-05-07 10:35 | 30.96806 | -8.96411 | 38951 ft | 447 kts | 214° |
| 2026-05-07 10:35 | 30.91381 | -8.99956 | 38951 ft | 447 kts | 213° |
| 2026-05-07 10:36 | 30.85956 | -9.03496 | 38954 ft | 447 kts | 213° |
| 2026-05-07 10:36 | 30.80529 | -9.07037 | 38950 ft | 447 kts | 213° |
| 2026-05-07 10:37 | 30.75099 | -9.10571 | 38944 ft | 448 kts | 213° |
| 2026-05-07 10:37 | 30.69672 | -9.14100 | 38943 ft | 447 kts | 213° |
| 2026-05-07 10:38 | 30.64201 | -9.17651 | 38943 ft | 447 kts | 213° |
| 2026-05-07 10:38 | 30.58771 | -9.21171 | 38939 ft | 448 kts | 213° |
| 2026-05-07 10:39 | 30.53326 | -9.24693 | 38941 ft | 447 kts | 213° |
| 2026-05-07 10:39 | 30.48807 | -9.27618 | 38945 ft | 448 kts | 213° |
| 2026-05-07 10:40 | 30.43359 | -9.31140 | 38942 ft | 448 kts | 213° |
| 2026-05-07 10:40 | 30.37913 | -9.34658 | 38943 ft | 448 kts | 213° |
| 2026-05-07 10:41 | 30.32956 | -9.38897 | 38933 ft | 440 kts | 230° |
| 2026-05-07 10:41 | 30.29654 | -9.44737 | 38939 ft | 434 kts | 247° |
| 2026-05-07 10:42 | 30.27127 | -9.51141 | 38931 ft | 435 kts | 247° |
| 2026-05-07 10:42 | 30.24614 | -9.57524 | 38944 ft | 436 kts | 247° |
| 2026-05-07 10:43 | 30.22088 | -9.63907 | 38946 ft | 437 kts | 247° |
| 2026-05-07 10:43 | 30.19552 | -9.70301 | 38942 ft | 438 kts | 247° |
| 2026-05-07 10:44 | 30.17008 | -9.76694 | 38943 ft | 438 kts | 247° |
| 2026-05-07 10:44 | 30.14463 | -9.83082 | 38940 ft | 438 kts | 247° |
| 2026-05-07 10:45 | 30.11909 | -9.89484 | 38932 ft | 439 kts | 247° |
| 2026-05-07 10:45 | 30.09351 | -9.95882 | 38933 ft | 439 kts | 247° |
| 2026-05-07 10:46 | 30.06789 | -10.02281 | 38931 ft | 439 kts | 247° |
| 2026-05-07 10:46 | 30.04223 | -10.08679 | 38933 ft | 439 kts | 247° |
| 2026-05-07 10:47 | 30.01657 | -10.15067 | 38942 ft | 439 kts | 247° |
| 2026-05-07 10:47 | 29.99089 | -10.21449 | 38942 ft | 439 kts | 247° |
| 2026-05-07 10:48 | 29.96514 | -10.27837 | 38946 ft | 439 kts | 246° |
| 2026-05-07 10:48 | 29.93921 | -10.34256 | 38941 ft | 439 kts | 247° |
| 2026-05-07 10:49 | 29.91342 | -10.40636 | 38945 ft | 438 kts | 247° |
| 2026-05-07 10:49 | 29.88778 | -10.46960 | 38941 ft | 438 kts | 247° |
| 2026-05-07 10:50 | 29.86180 | -10.53360 | 38942 ft | 438 kts | 247° |
| 2026-05-07 10:50 | 29.83597 | -10.59713 | 38945 ft | 438 kts | 247° |
| 2026-05-07 10:51 | 29.81010 | -10.66066 | 38945 ft | 438 kts | 247° |
| 2026-05-07 10:51 | 29.78423 | -10.72410 | 38944 ft | 437 kts | 247° |
| 2026-05-07 10:52 | 29.75833 | -10.78745 | 38943 ft | 438 kts | 247° |
| 2026-05-07 10:52 | 29.73239 | -10.85083 | 38943 ft | 438 kts | 247° |
| 2026-05-07 10:53 | 29.70639 | -10.91419 | 38944 ft | 438 kts | 247° |
| 2026-05-07 10:53 | 29.68040 | -10.97748 | 38942 ft | 438 kts | 247° |
| 2026-05-07 10:54 | 29.65439 | -11.04070 | 38942 ft | 438 kts | 247° |
| 2026-05-07 10:54 | 29.62833 | -11.10400 | 38942 ft | 438 kts | 247° |
| 2026-05-07 10:55 | 29.60219 | -11.16730 | 38944 ft | 438 kts | 247° |
| 2026-05-07 10:55 | 29.57606 | -11.23053 | 38952 ft | 438 kts | 247° |
| 2026-05-07 10:56 | 29.54987 | -11.29373 | 38952 ft | 438 kts | 247° |
| 2026-05-07 10:56 | 29.52368 | -11.35687 | 38952 ft | 438 kts | 247° |
| 2026-05-07 10:57 | 29.49745 | -11.42000 | 38952 ft | 438 kts | 247° |
| 2026-05-07 10:57 | 29.47116 | -11.48312 | 38952 ft | 438 kts | 247° |
| 2026-05-07 10:58 | 29.44485 | -11.54625 | 38962 ft | 439 kts | 247° |
| 2026-05-07 10:58 | 29.41854 | -11.60927 | 38962 ft | 438 kts | 247° |
| 2026-05-07 10:59 | 29.39212 | -11.67242 | 38819 ft | 442 kts | 247° |
| 2026-05-07 10:59 | 29.37875 | -11.70439 | 38576 ft | 448 kts | 247° |
| 2026-05-07 10:59 | 29.36521 | -11.73669 | 38328 ft | 449 kts | 247° |
| 2026-05-07 11:00 | 29.35169 | -11.76890 | 38081 ft | 449 kts | 247° |
| 2026-05-07 11:00 | 29.33814 | -11.80117 | 37834 ft | 449 kts | 247° |
| 2026-05-07 11:00 | 29.32442 | -11.83382 | 37576 ft | 449 kts | 247° |
| 2026-05-07 11:00 | 29.31088 | -11.86599 | 37334 ft | 448 kts | 247° |
| 2026-05-07 11:01 | 29.29750 | -11.89777 | 37094 ft | 448 kts | 247° |
| 2026-05-07 11:01 | 29.28376 | -11.93036 | 36835 ft | 448 kts | 247° |
| 2026-05-07 11:01 | 29.27019 | -11.96253 | 36586 ft | 448 kts | 247° |
| 2026-05-07 11:01 | 29.25662 | -11.99470 | 36338 ft | 449 kts | 248° |
| 2026-05-07 11:02 | 29.24304 | -12.02685 | 36089 ft | 450 kts | 248° |
| 2026-05-07 11:02 | 29.22935 | -12.05927 | 35840 ft | 454 kts | 248° |
| 2026-05-07 11:02 | 29.21560 | -12.09181 | 35592 ft | 455 kts | 248° |
| 2026-05-07 11:02 | 29.20181 | -12.12436 | 35336 ft | 454 kts | 248° |
| 2026-05-07 11:03 | 29.18806 | -12.15678 | 35083 ft | 452 kts | 248° |
| 2026-05-07 11:03 | 29.17438 | -12.18904 | 34841 ft | 449 kts | 248° |
| 2026-05-07 11:03 | 29.16076 | -12.22114 | 34597 ft | 447 kts | 248° |
| 2026-05-07 11:03 | 29.14720 | -12.25305 | 34341 ft | 445 kts | 248° |
| 2026-05-07 11:04 | 29.13368 | -12.28483 | 34088 ft | 443 kts | 247° |
| 2026-05-07 11:04 | 29.12025 | -12.31638 | 33803 ft | 438 kts | 248° |
| 2026-05-07 11:04 | 29.10699 | -12.34751 | 33368 ft | 433 kts | 248° |
| 2026-05-07 11:04 | 29.09387 | -12.37833 | 32880 ft | 429 kts | 247° |
| 2026-05-07 11:05 | 29.08085 | -12.40887 | 32390 ft | 425 kts | 248° |
| 2026-05-07 11:05 | 29.06794 | -12.43911 | 31909 ft | 422 kts | 247° |
| 2026-05-07 11:05 | 29.05512 | -12.46911 | 31445 ft | 417 kts | 248° |
| 2026-05-07 11:05 | 29.04242 | -12.49879 | 30957 ft | 414 kts | 248° |
| 2026-05-07 11:06 | 29.02984 | -12.52820 | 30488 ft | 410 kts | 248° |
| 2026-05-07 11:06 | 29.01737 | -12.55730 | 30030 ft | 406 kts | 247° |
| 2026-05-07 11:06 | 29.00499 | -12.58620 | 29541 ft | 403 kts | 247° |
| 2026-05-07 11:06 | 28.99276 | -12.61474 | 29087 ft | 399 kts | 247° |
| 2026-05-07 11:07 | 28.98060 | -12.64309 | 28633 ft | 395 kts | 247° |
| 2026-05-07 11:07 | 28.96852 | -12.67121 | 28175 ft | 392 kts | 247° |
| 2026-05-07 11:07 | 28.95659 | -12.69899 | 27714 ft | 388 kts | 247° |
| 2026-05-07 11:07 | 28.94473 | -12.72658 | 27262 ft | 385 kts | 247° |
| 2026-05-07 11:08 | 28.93299 | -12.75390 | 26805 ft | 382 kts | 246° |
| 2026-05-07 11:08 | 28.92116 | -12.78139 | 26342 ft | 379 kts | 246° |
| 2026-05-07 11:08 | 28.90957 | -12.80831 | 25867 ft | 377 kts | 246° |
| 2026-05-07 11:08 | 28.89798 | -12.83501 | 25427 ft | 374 kts | 246° |
| 2026-05-07 11:09 | 28.88619 | -12.86130 | 24966 ft | 371 kts | 245° |
| 2026-05-07 11:09 | 28.87440 | -12.88739 | 24500 ft | 369 kts | 245° |
| 2026-05-07 11:09 | 28.86270 | -12.91334 | 24016 ft | 367 kts | 245° |
| 2026-05-07 11:09 | 28.85105 | -12.93920 | 23536 ft | 365 kts | 245° |
| 2026-05-07 11:10 | 28.83950 | -12.96488 | 23055 ft | 363 kts | 245° |
| 2026-05-07 11:10 | 28.82801 | -12.99044 | 22575 ft | 362 kts | 245° |
| 2026-05-07 11:10 | 28.81654 | -13.01594 | 22096 ft | 360 kts | 245° |
| 2026-05-07 11:10 | 28.80513 | -13.04128 | 21630 ft | 358 kts | 244° |
| 2026-05-07 11:11 | 28.79380 | -13.06646 | 21136 ft | 357 kts | 244° |
| 2026-05-07 11:11 | 28.78249 | -13.09156 | 20656 ft | 355 kts | 244° |
| 2026-05-07 11:11 | 28.77123 | -13.11652 | 20174 ft | 354 kts | 244° |
| 2026-05-07 11:11 | 28.76001 | -13.14141 | 19694 ft | 352 kts | 244° |
| 2026-05-07 11:12 | 28.74885 | -13.16614 | 19219 ft | 351 kts | 244° |
| 2026-05-07 11:12 | 28.73774 | -13.19077 | 18745 ft | 349 kts | 244° |
| 2026-05-07 11:12 | 28.72664 | -13.21533 | 18261 ft | 348 kts | 244° |
| 2026-05-07 11:12 | 28.71560 | -13.23973 | 17790 ft | 346 kts | 244° |
| 2026-05-07 11:13 | 28.70460 | -13.26406 | 17313 ft | 345 kts | 244° |
| 2026-05-07 11:13 | 28.69361 | -13.28831 | 16841 ft | 343 kts | 244° |
| 2026-05-07 11:13 | 28.68635 | -13.30429 | 16526 ft | 342 kts | 244° |
| 2026-05-07 11:13 | 28.67547 | -13.32828 | 16057 ft | 340 kts | 244° |
| 2026-05-07 11:14 | 28.66464 | -13.35216 | 15584 ft | 338 kts | 244° |
| 2026-05-07 11:14 | 28.65388 | -13.37589 | 15115 ft | 337 kts | 244° |
| 2026-05-07 11:14 | 28.64301 | -13.39984 | 14644 ft | 335 kts | 244° |
| 2026-05-07 11:14 | 28.63233 | -13.42335 | 14180 ft | 333 kts | 244° |
| 2026-05-07 11:15 | 28.62171 | -13.44671 | 13712 ft | 332 kts | 244° |
| 2026-05-07 11:15 | 28.61113 | -13.46997 | 13260 ft | 330 kts | 244° |
| 2026-05-07 11:15 | 28.60059 | -13.49311 | 12799 ft | 328 kts | 244° |
| 2026-05-07 11:15 | 28.59014 | -13.51608 | 12345 ft | 326 kts | 244° |
| 2026-05-07 11:16 | 28.57971 | -13.53892 | 11891 ft | 324 kts | 244° |
| 2026-05-07 11:16 | 28.56936 | -13.56159 | 11441 ft | 323 kts | 245° |
| 2026-05-07 11:16 | 28.55906 | -13.58419 | 10979 ft | 321 kts | 244° |
| 2026-05-07 11:16 | 28.54881 | -13.60667 | 10552 ft | 318 kts | 244° |
| 2026-05-07 11:17 | 28.53811 | -13.62813 | 10391 ft | 306 kts | 237° |
| 2026-05-07 11:17 | 28.52321 | -13.64472 | 10257 ft | 298 kts | 215° |
| 2026-05-07 11:17 | 28.50498 | -13.65514 | 10121 ft | 289 kts | 205° |
| 2026-05-07 11:17 | 28.48656 | -13.66395 | 9829 ft | 287 kts | 205° |
| 2026-05-07 11:18 | 28.46786 | -13.67256 | 9491 ft | 293 kts | 201° |
| 2026-05-07 11:18 | 28.44771 | -13.67626 | 9163 ft | 296 kts | 179° |
| 2026-05-07 11:18 | 28.42757 | -13.67374 | 9022 ft | 286 kts | 173° |
| 2026-05-07 11:18 | 28.40825 | -13.67044 | 8829 ft | 277 kts | 173° |
| 2026-05-07 11:19 | 28.38934 | -13.66729 | 8535 ft | 273 kts | 174° |
| 2026-05-07 11:19 | 28.37062 | -13.66422 | 8217 ft | 271 kts | 173° |
| 2026-05-07 11:19 | 28.35242 | -13.65879 | 7942 ft | 271 kts | 157° |
| 2026-05-07 11:19 | 28.33562 | -13.64905 | 7872 ft | 272 kts | 152° |
| 2026-05-07 11:20 | 28.31909 | -13.63862 | 7793 ft | 271 kts | 152° |
| 2026-05-07 11:20 | 28.30260 | -13.62824 | 7700 ft | 271 kts | 152° |
| 2026-05-07 11:20 | 28.28610 | -13.61790 | 7604 ft | 271 kts | 152° |
| 2026-05-07 11:20 | 28.26958 | -13.60760 | 7520 ft | 271 kts | 152° |
| 2026-05-07 11:21 | 28.25313 | -13.59743 | 7433 ft | 269 kts | 152° |
| 2026-05-07 11:21 | 28.23576 | -13.59073 | 7293 ft | 259 kts | 178° |
| 2026-05-07 11:21 | 28.21804 | -13.59173 | 7229 ft | 254 kts | 189° |
| 2026-05-07 11:21 | 28.20051 | -13.59443 | 7136 ft | 255 kts | 190° |
| 2026-05-07 11:22 | 28.18295 | -13.59716 | 7047 ft | 254 kts | 189° |
| 2026-05-07 11:22 | 28.16541 | -13.59981 | 6953 ft | 255 kts | 189° |
| 2026-05-07 11:22 | 28.14783 | -13.60237 | 6870 ft | 255 kts | 189° |
| 2026-05-07 11:22 | 28.13027 | -13.60494 | 6780 ft | 254 kts | 189° |
| 2026-05-07 11:23 | 28.11271 | -13.60825 | 6691 ft | 252 kts | 197° |
| 2026-05-07 11:23 | 28.09742 | -13.61734 | 6605 ft | 248 kts | 221° |
| 2026-05-07 11:23 | 28.08442 | -13.63005 | 6508 ft | 247 kts | 225° |
| 2026-05-07 11:23 | 28.07172 | -13.64316 | 6440 ft | 247 kts | 225° |
| 2026-05-07 11:24 | 28.05899 | -13.65623 | 6349 ft | 247 kts | 225° |
| 2026-05-07 11:24 | 28.04621 | -13.66926 | 6253 ft | 247 kts | 224° |
| 2026-05-07 11:24 | 28.03341 | -13.68223 | 6169 ft | 248 kts | 224° |
| 2026-05-07 11:24 | 28.02056 | -13.69520 | 6074 ft | 247 kts | 224° |
| 2026-05-07 11:25 | 28.00896 | -13.70934 | 5992 ft | 244 kts | 240° |
| 2026-05-07 11:25 | 28.00263 | -13.72684 | 5882 ft | 239 kts | 258° |
| 2026-05-07 11:25 | 27.99869 | -13.74510 | 5742 ft | 239 kts | 260° |
| 2026-05-07 11:25 | 27.99494 | -13.76341 | 5626 ft | 239 kts | 259° |
| 2026-05-07 11:26 | 27.99109 | -13.78166 | 5496 ft | 239 kts | 259° |
| 2026-05-07 11:26 | 27.98720 | -13.79966 | 5369 ft | 231 kts | 259° |
| 2026-05-07 11:26 | 27.98375 | -13.81721 | 5223 ft | 221 kts | 264° |
| 2026-05-07 11:26 | 27.98452 | -13.83396 | 5083 ft | 207 kts | 288° |
| 2026-05-07 11:27 | 27.99119 | -13.84764 | 5011 ft | 196 kts | 313° |
| 2026-05-07 11:27 | 28.00210 | -13.85665 | 4972 ft | 196 kts | 336° |
| 2026-05-07 11:27 | 28.01533 | -13.85964 | 4868 ft | 195 kts | 1° |
| 2026-05-07 11:27 | 28.02856 | -13.85631 | 4787 ft | 196 kts | 19° |
| 2026-05-07 11:28 | 28.04160 | -13.85199 | 4701 ft | 195 kts | 9° |
| 2026-05-07 11:28 | 28.05524 | -13.85009 | 4610 ft | 194 kts | 4° |
| 2026-05-07 11:28 | 28.06854 | -13.84899 | 4536 ft | 194 kts | 3° |
| 2026-05-07 11:28 | 28.08202 | -13.84802 | 4455 ft | 194 kts | 3° |
| 2026-05-07 11:29 | 28.09546 | -13.84710 | 4363 ft | 193 kts | 3° |
| 2026-05-07 11:29 | 28.10883 | -13.84615 | 4299 ft | 193 kts | 3° |
| 2026-05-07 11:29 | 28.12223 | -13.84521 | 4215 ft | 194 kts | 3° |
| 2026-05-07 11:29 | 28.13562 | -13.84431 | 4136 ft | 192 kts | 3° |
| 2026-05-07 11:30 | 28.14899 | -13.84341 | 4055 ft | 192 kts | 3° |
| 2026-05-07 11:30 | 28.16248 | -13.84252 | 4007 ft | 192 kts | 3° |
| 2026-05-07 11:30 | 28.17583 | -13.84160 | 3997 ft | 192 kts | 3° |
| 2026-05-07 11:30 | 28.18915 | -13.84095 | 4008 ft | 192 kts | 0° |
| 2026-05-07 11:31 | 28.20218 | -13.84386 | 4006 ft | 193 kts | 338° |
| 2026-05-07 11:31 | 28.21327 | -13.85246 | 4000 ft | 194 kts | 320° |
| 2026-05-07 11:31 | 28.22337 | -13.86274 | 3998 ft | 195 kts | 322° |
| 2026-05-07 11:31 | 28.23528 | -13.86978 | 4005 ft | 193 kts | 347° |
| 2026-05-07 11:32 | 28.26170 | -13.87048 | 3507 ft | 192 kts | 2° |
| 2026-05-07 11:32 | 28.27496 | -13.86989 | 3277 ft | 191 kts | 2° |
| 2026-05-07 11:32 | 28.28785 | -13.86936 | 3163 ft | 180 kts | 3° |
| 2026-05-07 11:33 | 28.29985 | -13.86889 | 3061 ft | 166 kts | 3° |
| 2026-05-07 11:33 | 28.31071 | -13.86854 | 2997 ft | 146 kts | 3° |
| 2026-05-07 11:33 | 28.32049 | -13.86818 | 2818 ft | 138 kts | 4° |
| 2026-05-07 11:33 | 28.33017 | -13.86779 | 2420 ft | 141 kts | 3° |
| 2026-05-07 11:34 | 28.34014 | -13.86749 | 2079 ft | 143 kts | 3° |
| 2026-05-07 11:34 | 28.34983 | -13.86718 | 1877 ft | 136 kts | 4° |
| 2026-05-07 11:34 | 28.35933 | -13.86685 | 1696 ft | 135 kts | 4° |
| 2026-05-07 11:34 | 28.36871 | -13.86654 | 1512 ft | 135 kts | 4° |
| 2026-05-07 11:35 | 28.37814 | -13.86619 | 1339 ft | 136 kts | 6° |
| 2026-05-07 11:35 | 28.38756 | -13.86591 | 1147 ft | 134 kts | 4° |
| 2026-05-07 11:35 | 28.39669 | -13.86563 | 977 ft | 131 kts | 4° |
| 2026-05-07 11:35 | 28.40580 | -13.86531 | 795 ft | 131 kts | 4° |
| 2026-05-07 11:36 | 28.41492 | -13.86500 | 634 ft | 131 kts | 4° |
| 2026-05-07 11:36 | 28.42409 | -13.86470 | 392 ft | 134 kts | 3° |
| 2026-05-07 11:36 | 28.43342 | -13.86453 | 147 ft | 132 kts | 2° |
| 2026-05-07 11:36 | 28.44238 | -13.86438 | 58 ft | 128 kts | 3° |
| 2026-05-07 11:37 | 28.45028 | -13.86395 | 73 ft | 86 kts | 3° |
| 2026-05-07 11:37 | 28.45336 | -13.86384 | 84 ft | 30 kts | 1° |
| 2026-05-07 11:37 | 28.45375 | -13.86387 | 87 ft | 6 kts | 344° |
| 2026-05-07 11:37 | 28.45406 | -13.86437 | 83 ft | 9 kts | 278° |
| 2026-05-07 11:38 | 28.45416 | -13.86513 | 84 ft | 11 kts | 277° |
| 2026-05-07 11:38 | 28.45381 | -13.86589 | 84 ft | 12 kts | 242° |
| 2026-05-07 11:38 | 28.45372 | -13.86695 | 83 ft | 15 kts | 274° |
| 2026-05-07 11:38 | 28.45385 | -13.86784 | 87 ft | 9 kts | 277° |
| 2026-05-07 11:39 | 28.45386 | -13.86813 | 84 ft | 0 kts | 271° |